sensor_id;sensor_type;location;lat;lon;timestamp;temperature;humidity
1680;DHT22;838;51.794;12.258;2023-03-14T00:01:52;12.60;26.00
1680;DHT22;838;51.794;12.258;2023-03-14T00:04:18;12.50;26.50
1680;DHT22;838;51.794;12.258;2023-03-14T00:06:44;12.60;26.30
1680;DHT22;838;51.794;12.258;2023-03-14T00:09:12;12.50;26.50
1680;DHT22;838;51.794;12.258;2023-03-14T00:11:38;12.50;27.10
1680;DHT22;838;51.794;12.258;2023-03-14T00:14:04;12.40;27.90
1680;DHT22;838;51.794;12.258;2023-03-14T00:16:30;12.40;28.40
1680;DHT22;838;51.794;12.258;2023-03-14T00:18:58;12.30;28.80
1680;DHT22;838;51.794;12.258;2023-03-14T00:21:25;12.30;29.00
1680;DHT22;838;51.794;12.258;2023-03-14T00:23:51;12.30;29.50
1680;DHT22;838;51.794;12.258;2023-03-14T00:26:19;12.20;30.00
1680;DHT22;838;51.794;12.258;2023-03-14T00:28:45;12.10;30.80
1680;DHT22;838;51.794;12.258;2023-03-14T00:31:14;12.10;31.40
1680;DHT22;838;51.794;12.258;2023-03-14T00:33:41;12.00;32.00
1680;DHT22;838;51.794;12.258;2023-03-14T00:36:12;12.00;32.50
1680;DHT22;838;51.794;12.258;2023-03-14T00:38:39;11.90;32.90
1680;DHT22;838;51.794;12.258;2023-03-14T00:41:07;11.90;33.10
1680;DHT22;838;51.794;12.258;2023-03-14T00:43:33;11.90;33.60
1680;DHT22;838;51.794;12.258;2023-03-14T00:46:00;11.80;33.40
1680;DHT22;838;51.794;12.258;2023-03-14T00:48:26;11.80;33.30
1680;DHT22;838;51.794;12.258;2023-03-14T00:50:52;11.80;33.20
1680;DHT22;838;51.794;12.258;2023-03-14T00:53:17;11.80;33.10
1680;DHT22;838;51.794;12.258;2023-03-14T00:55:44;11.80;33.00
1680;DHT22;838;51.794;12.258;2023-03-14T00:58:11;11.80;32.90
1680;DHT22;838;51.794;12.258;2023-03-14T01:00:37;11.80;32.50
1680;DHT22;838;51.794;12.258;2023-03-14T01:03:04;11.80;32.20
1680;DHT22;838;51.794;12.258;2023-03-14T01:05:30;11.80;31.90
1680;DHT22;838;51.794;12.258;2023-03-14T01:07:56;11.90;31.60
1680;DHT22;838;51.794;12.258;2023-03-14T01:10:22;11.90;31.30
1680;DHT22;838;51.794;12.258;2023-03-14T01:12:48;11.90;31.00
1680;DHT22;838;51.794;12.258;2023-03-14T01:15:14;11.90;30.80
1680;DHT22;838;51.794;12.258;2023-03-14T01:17:40;11.90;30.70
1680;DHT22;838;51.794;12.258;2023-03-14T01:20:08;11.90;30.70
1680;DHT22;838;51.794;12.258;2023-03-14T01:22:35;12.00;30.40
1680;DHT22;838;51.794;12.258;2023-03-14T01:25:01;12.00;30.10
1680;DHT22;838;51.794;12.258;2023-03-14T01:27:27;12.00;30.30
1680;DHT22;838;51.794;12.258;2023-03-14T01:29:53;11.90;30.40
1680;DHT22;838;51.794;12.258;2023-03-14T01:32:18;11.90;30.40
1680;DHT22;838;51.794;12.258;2023-03-14T01:34:44;11.90;30.10
1680;DHT22;838;51.794;12.258;2023-03-14T01:37:10;11.90;30.10
1680;DHT22;838;51.794;12.258;2023-03-14T01:39:37;11.80;30.00
1680;DHT22;838;51.794;12.258;2023-03-14T01:42:03;11.80;30.00
1680;DHT22;838;51.794;12.258;2023-03-14T01:44:50;11.80;29.80
1680;DHT22;838;51.794;12.258;2023-03-14T01:47:16;11.80;29.40
1680;DHT22;838;51.794;12.258;2023-03-14T01:49:43;11.80;29.20
1680;DHT22;838;51.794;12.258;2023-03-14T01:52:13;11.80;29.10
1680;DHT22;838;51.794;12.258;2023-03-14T01:54:43;11.80;29.00
1680;DHT22;838;51.794;12.258;2023-03-14T01:59:51;11.80;28.70
1680;DHT22;838;51.794;12.258;2023-03-14T02:02:18;11.80;28.60
1680;DHT22;838;51.794;12.258;2023-03-14T02:04:44;11.80;28.60
1680;DHT22;838;51.794;12.258;2023-03-14T02:07:46;11.80;28.40
1680;DHT22;838;51.794;12.258;2023-03-14T02:10:15;11.60;27.80
1680;DHT22;838;51.794;12.258;2023-03-14T02:12:41;11.90;28.00
1680;DHT22;838;51.794;12.258;2023-03-14T02:15:08;11.90;27.80
1680;DHT22;838;51.794;12.258;2023-03-14T02:17:35;11.90;27.50
1680;DHT22;838;51.794;12.258;2023-03-14T02:22:37;11.90;27.30
1680;DHT22;838;51.794;12.258;2023-03-14T02:27:45;11.80;27.20
1680;DHT22;838;51.794;12.258;2023-03-14T02:30:18;11.80;27.30
1680;DHT22;838;51.794;12.258;2023-03-14T02:32:47;11.70;27.50
1680;DHT22;838;51.794;12.258;2023-03-14T02:35:17;11.70;27.50
1680;DHT22;838;51.794;12.258;2023-03-14T02:37:47;11.70;27.40
1680;DHT22;838;51.794;12.258;2023-03-14T02:40:14;11.70;27.70
1680;DHT22;838;51.794;12.258;2023-03-14T02:42:40;11.70;26.90
1680;DHT22;838;51.794;12.258;2023-03-14T02:47:41;11.80;26.20
1680;DHT22;838;51.794;12.258;2023-03-14T02:50:14;11.80;26.00
1680;DHT22;838;51.794;12.258;2023-03-14T02:52:41;11.80;25.90
1680;DHT22;838;51.794;12.258;2023-03-14T02:55:07;11.90;25.80
1680;DHT22;838;51.794;12.258;2023-03-14T02:57:33;11.80;25.70
1680;DHT22;838;51.794;12.258;2023-03-14T02:59:59;11.90;25.70
1680;DHT22;838;51.794;12.258;2023-03-14T03:02:26;11.90;25.50
1680;DHT22;838;51.794;12.258;2023-03-14T03:04:52;11.80;25.60
1680;DHT22;838;51.794;12.258;2023-03-14T03:07:18;11.80;25.60
1680;DHT22;838;51.794;12.258;2023-03-14T03:09:44;11.80;25.40
1680;DHT22;838;51.794;12.258;2023-03-14T03:12:10;11.90;25.30
1680;DHT22;838;51.794;12.258;2023-03-14T03:14:36;11.90;25.00
1680;DHT22;838;51.794;12.258;2023-03-14T03:17:04;11.90;24.80
1680;DHT22;838;51.794;12.258;2023-03-14T03:19:32;11.90;24.60
1680;DHT22;838;51.794;12.258;2023-03-14T03:21:57;11.90;24.40
1680;DHT22;838;51.794;12.258;2023-03-14T03:24:24;11.80;24.30
1680;DHT22;838;51.794;12.258;2023-03-14T03:26:50;11.80;24.40
1680;DHT22;838;51.794;12.258;2023-03-14T03:29:16;11.80;24.30
1680;DHT22;838;51.794;12.258;2023-03-14T03:31:42;11.80;24.20
1680;DHT22;838;51.794;12.258;2023-03-14T03:34:07;11.80;24.00
1680;DHT22;838;51.794;12.258;2023-03-14T03:36:34;11.80;23.90
1680;DHT22;838;51.794;12.258;2023-03-14T03:39:00;11.80;23.60
1680;DHT22;838;51.794;12.258;2023-03-14T03:41:25;11.80;23.20
1680;DHT22;838;51.794;12.258;2023-03-14T03:43:51;11.80;23.20
1680;DHT22;838;51.794;12.258;2023-03-14T03:46:17;11.80;23.10
1680;DHT22;838;51.794;12.258;2023-03-14T03:48:42;11.80;22.70
1680;DHT22;838;51.794;12.258;2023-03-14T03:51:13;11.80;22.50
1680;DHT22;838;51.794;12.258;2023-03-14T03:53:39;11.80;22.60
1680;DHT22;838;51.794;12.258;2023-03-14T03:56:05;11.80;21.50
1680;DHT22;838;51.794;12.258;2023-03-14T03:58:31;11.90;21.50
1680;DHT22;838;51.794;12.258;2023-03-14T04:00:57;11.90;21.20
1680;DHT22;838;51.794;12.258;2023-03-14T04:03:23;11.90;21.00
1680;DHT22;838;51.794;12.258;2023-03-14T04:06:18;12.00;20.80
1680;DHT22;838;51.794;12.258;2023-03-14T04:08:43;12.00;20.50
1680;DHT22;838;51.794;12.258;2023-03-14T04:11:09;11.90;20.50
1680;DHT22;838;51.794;12.258;2023-03-14T04:13:35;11.90;20.30
1680;DHT22;838;51.794;12.258;2023-03-14T04:16:01;11.90;20.30
1680;DHT22;838;51.794;12.258;2023-03-14T04:18:27;11.90;20.00
1680;DHT22;838;51.794;12.258;2023-03-14T04:20:54;12.00;20.00
1680;DHT22;838;51.794;12.258;2023-03-14T04:23:21;12.10;19.60
1680;DHT22;838;51.794;12.258;2023-03-14T04:25:49;12.10;18.80
1680;DHT22;838;51.794;12.258;2023-03-14T04:28:14;12.10;18.60
1680;DHT22;838;51.794;12.258;2023-03-14T04:30:40;12.00;18.80
1680;DHT22;838;51.794;12.258;2023-03-14T04:33:06;12.00;18.70
1680;DHT22;838;51.794;12.258;2023-03-14T04:35:33;11.90;19.20
1680;DHT22;838;51.794;12.258;2023-03-14T04:38:00;11.80;19.40
1680;DHT22;838;51.794;12.258;2023-03-14T04:40:25;11.80;19.40
1680;DHT22;838;51.794;12.258;2023-03-14T04:42:51;11.80;19.40
1680;DHT22;838;51.794;12.258;2023-03-14T04:45:17;11.70;19.50
1680;DHT22;838;51.794;12.258;2023-03-14T04:47:43;11.70;19.90
1680;DHT22;838;51.794;12.258;2023-03-14T04:50:09;11.60;20.00
1680;DHT22;838;51.794;12.258;2023-03-14T04:52:35;11.60;20.30
1680;DHT22;838;51.794;12.258;2023-03-14T04:55:01;11.60;20.40
1680;DHT22;838;51.794;12.258;2023-03-14T04:57:27;11.50;20.40
1680;DHT22;838;51.794;12.258;2023-03-14T04:59:52;11.50;20.60
1680;DHT22;838;51.794;12.258;2023-03-14T05:02:18;11.50;20.70
1680;DHT22;838;51.794;12.258;2023-03-14T05:04:44;11.60;20.60
1680;DHT22;838;51.794;12.258;2023-03-14T05:07:10;11.50;20.70
1680;DHT22;838;51.794;12.258;2023-03-14T05:09:35;11.60;20.60
1680;DHT22;838;51.794;12.258;2023-03-14T05:12:01;11.70;20.40
1680;DHT22;838;51.794;12.258;2023-03-14T05:14:27;11.70;20.30
1680;DHT22;838;51.794;12.258;2023-03-14T05:16:52;11.80;19.80
1680;DHT22;838;51.794;12.258;2023-03-14T05:19:18;11.90;19.50
1680;DHT22;838;51.794;12.258;2023-03-14T05:21:44;11.90;19.00
1680;DHT22;838;51.794;12.258;2023-03-14T05:24:09;11.90;18.90
1680;DHT22;838;51.794;12.258;2023-03-14T05:26:35;11.90;19.10
1680;DHT22;838;51.794;12.258;2023-03-14T05:29:01;11.90;19.30
1680;DHT22;838;51.794;12.258;2023-03-14T05:31:27;11.80;19.50
1680;DHT22;838;51.794;12.258;2023-03-14T05:33:53;11.80;20.30
1680;DHT22;838;51.794;12.258;2023-03-14T05:36:18;11.80;19.50
1680;DHT22;838;51.794;12.258;2023-03-14T05:38:44;11.80;19.60
1680;DHT22;838;51.794;12.258;2023-03-14T05:41:10;11.80;19.80
1680;DHT22;838;51.794;12.258;2023-03-14T05:43:35;11.70;20.10
1680;DHT22;838;51.794;12.258;2023-03-14T05:46:01;11.70;20.50
1680;DHT22;838;51.794;12.258;2023-03-14T05:48:27;11.70;20.30
1680;DHT22;838;51.794;12.258;2023-03-14T05:50:57;11.70;20.10
1680;DHT22;838;51.794;12.258;2023-03-14T05:53:22;11.80;19.70
1680;DHT22;838;51.794;12.258;2023-03-14T05:55:54;11.90;19.80
1680;DHT22;838;51.794;12.258;2023-03-14T05:58:20;11.90;19.60
1680;DHT22;838;51.794;12.258;2023-03-14T06:00:47;11.90;19.60
1680;DHT22;838;51.794;12.258;2023-03-14T06:03:13;11.90;19.60
1680;DHT22;838;51.794;12.258;2023-03-14T06:05:40;11.90;19.40
1680;DHT22;838;51.794;12.258;2023-03-14T06:08:06;11.90;19.60
1680;DHT22;838;51.794;12.258;2023-03-14T06:10:31;12.00;19.30
1680;DHT22;838;51.794;12.258;2023-03-14T06:12:57;12.10;18.70
1680;DHT22;838;51.794;12.258;2023-03-14T06:15:23;12.20;18.70
1680;DHT22;838;51.794;12.258;2023-03-14T06:17:48;12.30;18.60
1680;DHT22;838;51.794;12.258;2023-03-14T06:20:14;12.30;18.30
1680;DHT22;838;51.794;12.258;2023-03-14T06:22:40;12.30;18.40
1680;DHT22;838;51.794;12.258;2023-03-14T06:25:07;12.20;18.40
1680;DHT22;838;51.794;12.258;2023-03-14T06:27:33;12.10;18.70
1680;DHT22;838;51.794;12.258;2023-03-14T06:29:59;12.10;18.70
1680;DHT22;838;51.794;12.258;2023-03-14T06:32:25;12.10;18.90
1680;DHT22;838;51.794;12.258;2023-03-14T06:34:51;12.20;18.50
1680;DHT22;838;51.794;12.258;2023-03-14T06:37:16;12.20;18.30
1680;DHT22;838;51.794;12.258;2023-03-14T06:39:42;12.10;18.30
1680;DHT22;838;51.794;12.258;2023-03-14T06:42:10;12.10;18.40
1680;DHT22;838;51.794;12.258;2023-03-14T06:44:35;12.10;18.40
1680;DHT22;838;51.794;12.258;2023-03-14T06:47:01;12.10;18.40
1680;DHT22;838;51.794;12.258;2023-03-14T06:49:27;12.20;18.10
1680;DHT22;838;51.794;12.258;2023-03-14T06:51:52;12.30;17.80
1680;DHT22;838;51.794;12.258;2023-03-14T06:54:18;12.40;17.80
1680;DHT22;838;51.794;12.258;2023-03-14T06:56:44;12.50;17.20
1680;DHT22;838;51.794;12.258;2023-03-14T06:59:10;12.60;16.70
1680;DHT22;838;51.794;12.258;2023-03-14T07:01:37;12.60;16.70
1680;DHT22;838;51.794;12.258;2023-03-14T07:04:03;12.50;16.70
1680;DHT22;838;51.794;12.258;2023-03-14T07:06:30;12.50;16.80
1680;DHT22;838;51.794;12.258;2023-03-14T07:08:56;12.50;16.70
1680;DHT22;838;51.794;12.258;2023-03-14T07:11:22;12.50;16.60
1680;DHT22;838;51.794;12.258;2023-03-14T07:13:48;12.50;16.20
1680;DHT22;838;51.794;12.258;2023-03-14T07:16:14;12.60;15.70
1680;DHT22;838;51.794;12.258;2023-03-14T07:18:40;12.70;15.90
1680;DHT22;838;51.794;12.258;2023-03-14T07:21:06;12.80;15.10
1680;DHT22;838;51.794;12.258;2023-03-14T07:23:32;13.00;14.30
1680;DHT22;838;51.794;12.258;2023-03-14T07:25:58;13.20;13.70
1680;DHT22;838;51.794;12.258;2023-03-14T07:28:24;13.60;12.50
1680;DHT22;838;51.794;12.258;2023-03-14T07:30:50;13.90;11.60
1680;DHT22;838;51.794;12.258;2023-03-14T07:33:16;14.10;10.50
1680;DHT22;838;51.794;12.258;2023-03-14T07:35:42;14.10;9.70
1680;DHT22;838;51.794;12.258;2023-03-14T07:38:08;14.40;8.90
1680;DHT22;838;51.794;12.258;2023-03-14T07:40:33;15.30;7.30
1680;DHT22;838;51.794;12.258;2023-03-14T07:42:59;15.80;4.30
1680;DHT22;838;51.794;12.258;2023-03-14T07:45:25;15.90;3.50
1680;DHT22;838;51.794;12.258;2023-03-14T07:47:51;16.00;3.20
1680;DHT22;838;51.794;12.258;2023-03-14T07:50:16;15.90;2.00
1680;DHT22;838;51.794;12.258;2023-03-14T07:52:42;15.60;3.00
1680;DHT22;838;51.794;12.258;2023-03-14T07:55:08;15.30;3.20
1680;DHT22;838;51.794;12.258;2023-03-14T07:57:34;15.40;2.80
1680;DHT22;838;51.794;12.258;2023-03-14T08:00:00;15.70;3.00
1680;DHT22;838;51.794;12.258;2023-03-14T08:02:25;15.80;2.00
1680;DHT22;838;51.794;12.258;2023-03-14T08:04:51;15.70;2.30
1680;DHT22;838;51.794;12.258;2023-03-14T08:07:17;15.70;2.80
1680;DHT22;838;51.794;12.258;2023-03-14T08:09:43;15.80;2.20
1680;DHT22;838;51.794;12.258;2023-03-14T08:12:09;15.70;2.30
1680;DHT22;838;51.794;12.258;2023-03-14T08:14:35;15.50;2.40
1680;DHT22;838;51.794;12.258;2023-03-14T08:17:00;15.40;2.80
1680;DHT22;838;51.794;12.258;2023-03-14T08:19:26;15.10;3.00
1680;DHT22;838;51.794;12.258;2023-03-14T08:21:52;15.00;3.60
1680;DHT22;838;51.794;12.258;2023-03-14T08:24:18;15.00;3.20
1680;DHT22;838;51.794;12.258;2023-03-14T08:26:43;15.00;3.90
1680;DHT22;838;51.794;12.258;2023-03-14T08:29:09;15.20;3.80
1680;DHT22;838;51.794;12.258;2023-03-14T08:31:35;15.60;3.20
1680;DHT22;838;51.794;12.258;2023-03-14T08:34:01;15.70;2.30
1680;DHT22;838;51.794;12.258;2023-03-14T08:36:28;15.70;2.00
1680;DHT22;838;51.794;12.258;2023-03-14T08:38:54;15.80;2.20
1680;DHT22;838;51.794;12.258;2023-03-14T08:41:19;16.00;1.80
1680;DHT22;838;51.794;12.258;2023-03-14T08:43:45;16.10;1.40
1680;DHT22;838;51.794;12.258;2023-03-14T08:46:11;16.10;1.00
1680;DHT22;838;51.794;12.258;2023-03-14T08:48:37;16.10;1.00
1680;DHT22;838;51.794;12.258;2023-03-14T08:51:13;16.00;1.20
1680;DHT22;838;51.794;12.258;2023-03-14T08:53:40;15.80;1.50
1680;DHT22;838;51.794;12.258;2023-03-14T08:56:07;15.60;1.80
1680;DHT22;838;51.794;12.258;2023-03-14T08:58:36;15.50;2.20
1680;DHT22;838;51.794;12.258;2023-03-14T09:01:07;15.30;2.20
1680;DHT22;838;51.794;12.258;2023-03-14T09:03:33;15.10;3.00
1680;DHT22;838;51.794;12.258;2023-03-14T09:06:09;15.00;3.60
1680;DHT22;838;51.794;12.258;2023-03-14T09:08:36;14.80;4.30
1680;DHT22;838;51.794;12.258;2023-03-14T09:11:02;14.80;4.60
1680;DHT22;838;51.794;12.258;2023-03-14T09:13:28;14.90;4.80
1680;DHT22;838;51.794;12.258;2023-03-14T09:15:55;14.80;4.70
1680;DHT22;838;51.794;12.258;2023-03-14T09:18:22;14.90;4.90
1680;DHT22;838;51.794;12.258;2023-03-14T09:20:48;15.00;4.70
1680;DHT22;838;51.794;12.258;2023-03-14T09:23:15;14.90;4.90
1680;DHT22;838;51.794;12.258;2023-03-14T09:25:41;14.90;5.20
1680;DHT22;838;51.794;12.258;2023-03-14T09:28:07;14.80;5.10
1680;DHT22;838;51.794;12.258;2023-03-14T09:30:33;14.80;5.00
1680;DHT22;838;51.794;12.258;2023-03-14T09:32:59;14.80;4.60
1680;DHT22;838;51.794;12.258;2023-03-14T09:35:25;14.90;4.60
1680;DHT22;838;51.794;12.258;2023-03-14T09:37:51;15.00;4.30
1680;DHT22;838;51.794;12.258;2023-03-14T09:40:18;15.30;4.00
1680;DHT22;838;51.794;12.258;2023-03-14T09:42:48;15.20;3.00
1680;DHT22;838;51.794;12.258;2023-03-14T09:45:37;15.20;3.00
1680;DHT22;838;51.794;12.258;2023-03-14T09:48:08;15.30;3.20
1680;DHT22;838;51.794;12.258;2023-03-14T09:50:41;15.10;2.90
1680;DHT22;838;51.794;12.258;2023-03-14T09:53:16;15.20;3.20
1680;DHT22;838;51.794;12.258;2023-03-14T09:55:45;15.20;3.10
1680;DHT22;838;51.794;12.258;2023-03-14T09:58:20;15.20;2.90
1680;DHT22;838;51.794;12.258;2023-03-14T10:00:46;15.20;3.10
1680;DHT22;838;51.794;12.258;2023-03-14T10:05:38;15.30;2.50
1680;DHT22;838;51.794;12.258;2023-03-14T10:08:05;15.20;2.60
1680;DHT22;838;51.794;12.258;2023-03-14T10:10:31;15.30;2.80
1680;DHT22;838;51.794;12.258;2023-03-14T10:13:18;15.40;2.20
1680;DHT22;838;51.794;12.258;2023-03-14T10:16:02;15.40;1.90
1680;DHT22;838;51.794;12.258;2023-03-14T10:18:30;15.70;1.60
1680;DHT22;838;51.794;12.258;2023-03-14T10:21:28;15.70;1.00
1680;DHT22;838;51.794;12.258;2023-03-14T10:23:54;15.90;1.00
1680;DHT22;838;51.794;12.258;2023-03-14T10:26:29;15.90;1.00
1680;DHT22;838;51.794;12.258;2023-03-14T10:29:12;15.90;1.00
1680;DHT22;838;51.794;12.258;2023-03-14T10:34:24;15.80;1.00
1680;DHT22;838;51.794;12.258;2023-03-14T10:36:56;15.60;1.00
1680;DHT22;838;51.794;12.258;2023-03-14T10:39:48;15.60;1.00
1680;DHT22;838;51.794;12.258;2023-03-14T10:42:24;15.60;1.00
1680;DHT22;838;51.794;12.258;2023-03-14T10:44:56;15.50;1.00
1680;DHT22;838;51.794;12.258;2023-03-14T10:47:24;15.40;1.00
1680;DHT22;838;51.794;12.258;2023-03-14T10:49:51;15.40;1.10
1680;DHT22;838;51.794;12.258;2023-03-14T10:52:29;15.50;1.10
1680;DHT22;838;51.794;12.258;2023-03-14T10:55:01;15.60;1.00
1680;DHT22;838;51.794;12.258;2023-03-14T10:57:27;15.60;1.00
1680;DHT22;838;51.794;12.258;2023-03-14T10:59:55;15.70;1.00
1680;DHT22;838;51.794;12.258;2023-03-14T11:05:18;15.70;1.00
1680;DHT22;838;51.794;12.258;2023-03-14T11:07:46;15.70;1.00
1680;DHT22;838;51.794;12.258;2023-03-14T11:10:45;15.50;1.00
1680;DHT22;838;51.794;12.258;2023-03-14T11:16:27;15.70;1.50
1680;DHT22;838;51.794;12.258;2023-03-14T11:27:06;16.70;1.00
1680;DHT22;838;51.794;12.258;2023-03-14T11:29:41;17.00;1.00
1680;DHT22;838;51.794;12.258;2023-03-14T11:32:38;16.90;1.00
1680;DHT22;838;51.794;12.258;2023-03-14T11:35:30;16.70;1.00
1680;DHT22;838;51.794;12.258;2023-03-14T11:38:30;16.60;1.00
1680;DHT22;838;51.794;12.258;2023-03-14T11:40:58;16.70;1.00
1680;DHT22;838;51.794;12.258;2023-03-14T11:43:36;16.60;1.00
1680;DHT22;838;51.794;12.258;2023-03-14T11:52:16;16.90;1.00
1680;DHT22;838;51.794;12.258;2023-03-14T11:54:47;16.70;1.00
1680;DHT22;838;51.794;12.258;2023-03-14T11:57:20;16.60;1.00
1680;DHT22;838;51.794;12.258;2023-03-14T12:00:13;16.70;1.00
1680;DHT22;838;51.794;12.258;2023-03-14T12:03:02;16.60;1.00
1680;DHT22;838;51.794;12.258;2023-03-14T12:10:49;16.30;1.00
1680;DHT22;838;51.794;12.258;2023-03-14T12:13:17;16.00;1.00
1680;DHT22;838;51.794;12.258;2023-03-14T12:15:58;15.80;1.70
1680;DHT22;838;51.794;12.258;2023-03-14T12:18:36;15.70;2.00
1680;DHT22;838;51.794;12.258;2023-03-14T12:21:11;15.90;2.40
1680;DHT22;838;51.794;12.258;2023-03-14T12:23:42;16.10;1.70
1680;DHT22;838;51.794;12.258;2023-03-14T12:28:38;16.00;1.40
1680;DHT22;838;51.794;12.258;2023-03-14T12:34:02;15.80;2.00
1680;DHT22;838;51.794;12.258;2023-03-14T12:44:51;15.60;2.30
1680;DHT22;838;51.794;12.258;2023-03-14T12:49:50;15.60;3.10
1680;DHT22;838;51.794;12.258;2023-03-14T12:52:41;15.80;3.00
1680;DHT22;838;51.794;12.258;2023-03-14T12:55:24;15.80;2.30
1680;DHT22;838;51.794;12.258;2023-03-14T12:58:07;15.90;2.30
1680;DHT22;838;51.794;12.258;2023-03-14T13:00:37;16.00;2.20
1680;DHT22;838;51.794;12.258;2023-03-14T13:03:19;16.10;1.90
1680;DHT22;838;51.794;12.258;2023-03-14T13:05:56;16.20;1.90
1680;DHT22;838;51.794;12.258;2023-03-14T13:11:04;16.40;1.70
1680;DHT22;838;51.794;12.258;2023-03-14T13:13:34;16.50;1.00
1680;DHT22;838;51.794;12.258;2023-03-14T13:16:01;16.60;1.00
1680;DHT22;838;51.794;12.258;2023-03-14T13:18:36;16.90;1.00
1680;DHT22;838;51.794;12.258;2023-03-14T13:26:21;16.40;1.00
1680;DHT22;838;51.794;12.258;2023-03-14T13:28:48;16.30;1.00
1680;DHT22;838;51.794;12.258;2023-03-14T13:31:25;16.10;1.00
1680;DHT22;838;51.794;12.258;2023-03-14T13:34:02;16.00;1.00
1680;DHT22;838;51.794;12.258;2023-03-14T13:36:30;16.10;1.00
1680;DHT22;838;51.794;12.258;2023-03-14T13:39:00;16.10;1.00
1680;DHT22;838;51.794;12.258;2023-03-14T13:41:27;16.20;1.00
1680;DHT22;838;51.794;12.258;2023-03-14T13:44:16;16.40;1.00
1680;DHT22;838;51.794;12.258;2023-03-14T13:46:42;16.30;1.00
1680;DHT22;838;51.794;12.258;2023-03-14T13:49:28;16.20;1.00
1680;DHT22;838;51.794;12.258;2023-03-14T13:51:56;16.10;1.00
1680;DHT22;838;51.794;12.258;2023-03-14T13:54:22;16.20;1.00
1680;DHT22;838;51.794;12.258;2023-03-14T13:57:02;16.40;1.00
1680;DHT22;838;51.794;12.258;2023-03-14T13:59:31;16.40;1.00
1680;DHT22;838;51.794;12.258;2023-03-14T14:02:00;16.40;1.00
1680;DHT22;838;51.794;12.258;2023-03-14T14:04:29;16.30;1.00
1680;DHT22;838;51.794;12.258;2023-03-14T14:06:59;16.30;1.00
1680;DHT22;838;51.794;12.258;2023-03-14T14:09:37;16.30;1.00
1680;DHT22;838;51.794;12.258;2023-03-14T14:14:54;16.40;1.00
1680;DHT22;838;51.794;12.258;2023-03-14T14:17:26;16.40;1.00
1680;DHT22;838;51.794;12.258;2023-03-14T14:19:54;16.20;1.00
1680;DHT22;838;51.794;12.258;2023-03-14T14:22:21;16.10;1.00
1680;DHT22;838;51.794;12.258;2023-03-14T14:24:47;16.00;1.00
1680;DHT22;838;51.794;12.258;2023-03-14T14:27:16;15.90;1.20
1680;DHT22;838;51.794;12.258;2023-03-14T14:29:42;15.90;3.00
1680;DHT22;838;51.794;12.258;2023-03-14T14:34:45;13.40;6.80
1680;DHT22;838;51.794;12.258;2023-03-14T14:37:22;11.60;22.30
1680;DHT22;838;51.794;12.258;2023-03-14T14:39:51;10.50;31.50
1680;DHT22;838;51.794;12.258;2023-03-14T14:42:20;10.00;40.20
1680;DHT22;838;51.794;12.258;2023-03-14T14:44:50;9.60;43.70
1680;DHT22;838;51.794;12.258;2023-03-14T14:47:20;9.20;42.40
1680;DHT22;838;51.794;12.258;2023-03-14T14:49:47;8.90;44.20
1680;DHT22;838;51.794;12.258;2023-03-14T14:54:46;8.70;49.80
1680;DHT22;838;51.794;12.258;2023-03-14T14:57:33;8.60;51.00
1680;DHT22;838;51.794;12.258;2023-03-14T15:00:06;8.60;51.70
1680;DHT22;838;51.794;12.258;2023-03-14T15:02:45;8.50;53.50
1680;DHT22;838;51.794;12.258;2023-03-14T15:05:19;8.50;54.20
1680;DHT22;838;51.794;12.258;2023-03-14T15:07:46;8.50;53.40
1680;DHT22;838;51.794;12.258;2023-03-14T15:12:39;8.50;54.60
1680;DHT22;838;51.794;12.258;2023-03-14T15:15:06;8.40;55.50
1680;DHT22;838;51.794;12.258;2023-03-14T15:17:32;8.40;56.70
1680;DHT22;838;51.794;12.258;2023-03-14T15:19:58;8.30;57.20
1680;DHT22;838;51.794;12.258;2023-03-14T15:22:24;8.20;56.40
1680;DHT22;838;51.794;12.258;2023-03-14T15:24:50;7.90;45.50
1680;DHT22;838;51.794;12.258;2023-03-14T15:27:17;7.80;45.90
1680;DHT22;838;51.794;12.258;2023-03-14T15:29:43;7.40;43.90
1680;DHT22;838;51.794;12.258;2023-03-14T15:32:11;7.30;47.70
1680;DHT22;838;51.794;12.258;2023-03-14T15:34:38;7.10;48.40
1680;DHT22;838;51.794;12.258;2023-03-14T15:37:03;6.90;46.50
1680;DHT22;838;51.794;12.258;2023-03-14T15:39:35;6.70;45.20
1680;DHT22;838;51.794;12.258;2023-03-14T15:42:01;6.40;44.90
1680;DHT22;838;51.794;12.258;2023-03-14T15:44:27;6.20;48.70
1680;DHT22;838;51.794;12.258;2023-03-14T15:46:53;5.90;46.00
1680;DHT22;838;51.794;12.258;2023-03-14T15:49:19;5.70;46.10
1680;DHT22;838;51.794;12.258;2023-03-14T15:51:44;5.60;45.30
1680;DHT22;838;51.794;12.258;2023-03-14T15:54:10;5.40;45.20
1680;DHT22;838;51.794;12.258;2023-03-14T15:56:36;5.20;45.10
1680;DHT22;838;51.794;12.258;2023-03-14T15:59:02;5.10;48.00
1680;DHT22;838;51.794;12.258;2023-03-14T16:01:28;5.00;49.50
1680;DHT22;838;51.794;12.258;2023-03-14T16:03:53;5.00;54.00
1680;DHT22;838;51.794;12.258;2023-03-14T16:06:19;5.00;54.60
1680;DHT22;838;51.794;12.258;2023-03-14T16:08:45;5.00;53.10
1680;DHT22;838;51.794;12.258;2023-03-14T16:11:12;4.90;50.20
1680;DHT22;838;51.794;12.258;2023-03-14T16:13:40;4.90;48.40
1680;DHT22;838;51.794;12.258;2023-03-14T16:16:07;4.90;48.30
1680;DHT22;838;51.794;12.258;2023-03-14T16:18:35;4.90;46.30
1680;DHT22;838;51.794;12.258;2023-03-14T16:21:07;4.90;44.80
1680;DHT22;838;51.794;12.258;2023-03-14T16:23:34;4.90;46.00
1680;DHT22;838;51.794;12.258;2023-03-14T16:26:05;4.90;43.90
1680;DHT22;838;51.794;12.258;2023-03-14T16:28:31;4.80;43.70
1680;DHT22;838;51.794;12.258;2023-03-14T16:31:06;4.70;42.00
1680;DHT22;838;51.794;12.258;2023-03-14T16:33:33;4.70;43.50
1680;DHT22;838;51.794;12.258;2023-03-14T16:36:01;4.60;42.10
1680;DHT22;838;51.794;12.258;2023-03-14T16:38:31;4.50;43.40
1680;DHT22;838;51.794;12.258;2023-03-14T16:41:17;4.50;45.40
1680;DHT22;838;51.794;12.258;2023-03-14T16:43:43;4.40;44.40
1680;DHT22;838;51.794;12.258;2023-03-14T16:46:16;4.30;48.00
1680;DHT22;838;51.794;12.258;2023-03-14T16:48:43;4.30;47.50
1680;DHT22;838;51.794;12.258;2023-03-14T16:51:09;4.30;48.80
1680;DHT22;838;51.794;12.258;2023-03-14T16:53:35;4.20;44.30
1680;DHT22;838;51.794;12.258;2023-03-14T16:56:01;4.20;45.00
1680;DHT22;838;51.794;12.258;2023-03-14T16:58:27;4.20;44.20
1680;DHT22;838;51.794;12.258;2023-03-14T17:00:54;4.30;45.30
1680;DHT22;838;51.794;12.258;2023-03-14T17:03:22;4.30;46.50
1680;DHT22;838;51.794;12.258;2023-03-14T17:05:50;4.40;46.90
1680;DHT22;838;51.794;12.258;2023-03-14T17:08:17;4.50;48.20
1680;DHT22;838;51.794;12.258;2023-03-14T17:10:44;4.60;47.70
1680;DHT22;838;51.794;12.258;2023-03-14T17:13:11;4.70;47.90
1680;DHT22;838;51.794;12.258;2023-03-14T17:15:36;4.80;46.90
1680;DHT22;838;51.794;12.258;2023-03-14T17:18:03;4.90;47.10
1680;DHT22;838;51.794;12.258;2023-03-14T17:20:29;5.00;45.10
1680;DHT22;838;51.794;12.258;2023-03-14T17:22:55;5.00;45.30
1680;DHT22;838;51.794;12.258;2023-03-14T17:25:20;5.10;44.30
1680;DHT22;838;51.794;12.258;2023-03-14T17:27:46;5.10;43.80
1680;DHT22;838;51.794;12.258;2023-03-14T17:30:12;5.10;44.00
1680;DHT22;838;51.794;12.258;2023-03-14T17:32:38;5.10;43.60
1680;DHT22;838;51.794;12.258;2023-03-14T17:35:04;5.10;42.90